Terminal Aerodrome Forecast
Issued by NWS Upton, NY

Home | Current Version | Previous Version | Text Only | Print | Product List | Glossary On
Versions: 1 2 3 4 5 6 7 8 9 10 11 12 13 14 15 16 17 18 19 20 21 22 23 24 25 26 27 28 29
880
FTUS41 KOKX 191720
TAFJFK
TAF
KJFK 191720Z 1918/2024 28011KT P6SM BKN100
     FM192200 32011KT P6SM SCT100 SCT250
     FM201400 34013G21KT P6SM SKC=

USA.gov is the U.S. government's official web portal to all federal, state and local government web resources and services.